Terminal Aerodrome Forecast
Issued by NWS

Home | Current Version | Previous Version | Text Only | Print | Product List | Glossary Off
Versions: 1 2 3 4 5 6 7 8 9 10 11 12 13 14

000
FTUS43 KUNR 252300
TAFGCC
TAF
KGCC 252320Z 2600/2624 31012KT P6SM BKN050
     FM260200 VRB05KT P6SM BKN120
     FM261400 32018G28KT P6SM BKN040=

USA.gov is the U.S. government's official web portal to all federal, state and local government web resources and services.